Mc Kellar Sipes Regional Airport Jackson US
ICAO: KMKL
IATA: MKL
Category: Medium
Scheduled Services: Yes

Elevation: 434 ft
TransAlt. 18000 ft.

Airport Communications:
ASOS:119.325
MEMPHIS CNTR:134.65
CTAF:127.15
GND:120.9
ARNG OPS:41.5
JACKSON RDO:122.2
JACKSON TWR:127.15
UNICOM:122.95

KMKL Zoom In..

If Map Doesn't Load, Click Here

Runways:

(A) RW 02 length 6006 ft width 150 ft
ILS 109.10 / hdg 23

(B) RW 11 length 3538 ft width 100 ft
---- / hdg 113

(C) RW 20 length 6006 ft width 150 ft
---- / hdg 203

(D) RW 29 length 3538 ft width 100 ft
---- / hdg 293

Location; KMKL
Day. 23 / Time. 08.18 Zulu
* Altimeter: 30.01
* Temperature: 19° c. 66.2°f.
* Wind from: 000° Speed 00 kn.
Dewpoint: 19° c.
Visibility: 2 m.
Clouds: Overcast 200 ft.
Conditions: Light Rain.Conditions: Mist.

KMKL 230818Z AUTO 00000KT 2 1/2SM -RA BR OVC002 19/19 A3001 RMK AO2 RAB14 P0000 T01890189


Wind - Calm.

 
 
jpsmedia.com for Web Design worldairports.se 2018   terms of use